6788500 - North Loup River at Ord

Latitude:
41.60740º N
Longitude:
98.92205º W
Type:
Stream
River Basin:
Loup
Source:
NeDNR

Info! The graphs are now plotted with new date ranges.
Warning! If you see this please check date range (or) the data is not available.

 to 


—— Provisional Data Subject to Revision ——

Instantaneous Discharge

6788500 - North Loup River at Ord
- Ice Possible      - Equipment Malfunction
- Seasonal      -Rating in Development
- Measured



Instantaneous Stage

6788500 - North Loup River at Ord
- Ice Possible      - Equipment Malfunction
- Seasonal      -Rating in Development
- Measured



 to 


—— Provisional Data Subject to Revision ——

Daily Discharge

6788500 - North Loup River at Ord
- Approved      - Provisional


Export
Date Time Discharge (cfs) Stage (feet) Shift (feet)
08/28/2019 11:15 2,010 3.63 -0.32
07/31/2019 15:00 910 2.90 -0.16
07/08/2019 14:45 1,530 3.50 -0.42
06/04/2019 14:30 2,790 4.14 -0.54
05/16/2019 14:45 1,110 2.87 0.00
04/10/2019 11:00 1,380 3.22 -0.21
03/25/2019 11:00 2,680 3.65 -0.09
03/15/2019 16:00 2,980 3.12 0.54
01/14/2019 13:15 1,260 2.78 0.17
12/17/2018 13:45 1,270 2.75 0.20
11/21/2018 8:45 1,120 2.81 0.06
10/26/2018 11:30 1,180 2.91 0.00
09/25/2018 14:15 1,140 3.18 -0.29
08/30/2018 14:15 856 2.85 -0.15
08/02/2018 10:45 1,020 3.04 -0.23
06/25/2018 13:45 2,370 3.82 -0.37
06/05/2018 14:46 542 2.44 0.00
05/10/2018 10:00 560 2.43 0.03
04/10/2018 15:15 897 2.60 0.13
03/13/2018 2:15 1,410 2.77 0.25
03/02/2018 9:00 1,410 2.65 0.37
12/19/2017 14:15 1,100 2.79 0.07
11/21/2017 14:00 1,110 2.84 0.03
10/24/2017 11:48 760 2.73 -0.10
09/27/2017 10:45 1,170 3.26 -0.36
08/03/2017 12:58 622 2.60 -0.09
06/27/2017 9:21 218 2.01 0.02
06/09/2017 8:04 552 2.52 -0.07
05/11/2017 14:45 764 2.56 0.07
04/12/2017 10:45 1,090 2.79 0.07
03/15/2017 15:00 834 2.58 0.11
02/15/2017 13:30 1,240 2.80 0.14
01/30/2017 9:45 1,200 2.71 0.21
12/19/2016 14:20 526 3.46 -1.04
11/23/2016 9:46 828 2.68 0.00
10/28/2016 11:30 774 2.78 -0.14
09/27/2016 10:00 802 2.91 -0.25
08/31/2016 15:00 556 2.56 -0.11
08/03/2016 14:45 855 2.78 -0.08
07/12/2016 11:16 631 2.57 -0.05
06/09/2016 9:55 513 2.25 0.16
05/10/2016 15:00 1,360 2.99 0.01
04/13/2016 13:30 707 2.43 0.16
03/16/2016 14:45 940 2.59 0.17
02/19/2016 8:15 1,120 2.73 0.14
01/28/2016 14:00 980 2.70 0.09
12/22/2015 13:00 1,080 2.64 0.21
11/24/2015 14:42 869 2.51 0.20
10/28/2015 13:55 764 2.65 -0.02
09/28/2015 15:24 1,060 3.10 -0.26
09/04/2015 9:23 538 2.53 -0.09
08/06/2015 15:29 536 2.47 -0.04
07/01/2015 15:41 620 2.49 0.02
06/04/2015 11:40 879 2.74 -0.02
05/13/2015 15:45 685 2.51 0.06
04/14/2015 11:45 852 2.61 0.09
03/16/2015 14:15 978 2.64 0.15
02/25/2015 8:45 925 2.54 0.21
01/29/2015 13:30 1,260 2.73 0.22
01/15/2015 13:30 899 4.12 -1.39
12/18/2014 10:15 1,040 2.55 0.28
12/10/2014 13:30 1,110 2.31 0.56
10/29/2014 12:00 684 2.44 0.13
09/29/2014 12:00 993 2.96 -0.16
09/11/2014 11:30 934 2.89 -0.13
08/18/2014 8:45 2,920 4.04 -0.40
08/12/2014 12:30 761 2.71 -0.08
07/10/2014 11:50 844 2.68 0.01
06/17/2014 8:30 958 2.66 0.11
05/15/2014 11:55 595 2.17 0.32
04/15/2014 14:45 1,040 2.45 0.38
03/10/2014 15:25 1,140 2.56 0.33
02/19/2014 14:15 1,380 2.90 0.11
01/24/2014 10:30 589 2.92 -0.44
12/17/2013 8:30 874 3.39 -0.68
11/26/2013 14:05 885 2.42 0.30
11/01/2013 10:20 752 2.34 0.28
09/30/2013 15:00 915 2.59 0.15
09/09/2013 15:37 641 2.27 0.26
08/15/2013 8:30 1,200 2.68 0.24
08/09/2013 10:23 827 2.28 0.40
07/11/2013 15:40 464 1.94 0.42
06/13/2013 15:27 763 2.20 0.43
05/30/2013 8:30 2,200 2.90 0.48
05/20/2013 15:17 702 2.00 0.58
04/15/2013 15:55 1,160 2.29 0.61
03/20/2013 15:57 1,050 2.38 0.46
02/14/2013 10:45 784 2.06 0.59
01/25/2013 10:15 595 3.02 -0.53
01/04/2013 9:00 679 3.27 -0.71
11/27/2012 10:14 719 2.30 0.30
11/01/2012 15:57 655 2.38 0.17
10/04/2012 16:13 604 2.61 -0.11
09/06/2012 15:25 498 2.52 -0.12
08/08/2012 14:59 460 2.42 -0.06
07/12/2012 12:01 459 2.41 -0.05
06/13/2012 11:43 542 2.45 -0.01
05/17/2012 14:54 680 2.50 0.06
04/24/2012 10:13 895 2.64 0.09
03/21/2012 15:30 1,300 2.91 0.06
02/28/2012 9:00 1,310 2.86 0.11
01/26/2012 9:45 1,060 2.90 -0.06
12/21/2011 13:30 1,130 2.74 0.14
11/28/2011 14:00 879 2.76 -0.04
10/31/2011 14:15 926 2.76 0.00
10/12/2011 14:30 1,090 3.12 -0.26
09/13/2011 15:00 805 3.09 -0.43
08/19/2011 10:00 865 3.03 -0.32
07/18/2011 14:57 1,100 3.20 -0.34
06/15/2011 10:50 710 2.71 -0.12
05/23/2011 15:15 1,180 3.05 -0.14
04/26/2011 14:30 1,160 2.89 0.01
03/21/2011 15:15 1,350 3.01 -0.02
02/17/2011 8:45 2,270 3.06 0.35
02/16/2011 13:15 2,340 4.42 -0.98
01/27/2011 13:45 1,180 3.87 -0.96
01/04/2011 13:30 999 3.90 -1.10
12/02/2010 14:04 782 2.64 0.01
11/04/2010 11:15 889 2.78 -0.06
10/07/2010 10:33 805 2.98 -0.31
09/09/2010 15:00 1,160 3.59 -0.69
08/12/2010 14:58 1,050 3.48 -0.64
07/12/2010 14:30 1,580 3.77 -0.66
06/18/2010 8:30 4,000 4.92 -0.97
06/12/2010 18:00 11,300 5.99 -0.68
06/12/2010 9:45 12,600 6.24 -0.75
06/11/2010 14:30 4,730 4.46 -0.32
06/08/2010 14:15 2,400 3.59 -0.13
05/19/2010 10:44 902 2.65 0.09
04/28/2010 9:33 1,240 2.98 -0.04
03/25/2010 15:20 1,220 2.78 0.15
03/10/2010 14:15 2,090 3.04 0.30
02/23/2010 14:20 1,230 3.42 -0.49
02/03/2010 8:15 969 4.00 -1.22
12/30/2009 13:00 959 3.99 -1.22
12/18/2009 9:45 952 3.76 -0.99
12/02/2009 13:30 1,010 2.72 0.09
11/06/2009 9:45 1,240 2.92 0.02
10/06/2009 12:28 1,070 3.08 -0.23
09/18/2009 11:07 883 2.91 -0.18
08/25/2009 12:53 1,670 3.52 -0.36
08/10/2009 15:39 828 2.80 -0.12
07/20/2009 14:58 666 2.76 -0.21
06/17/2009 9:45 1,500 3.08 -0.01
05/19/2009 15:28 494 2.26 0.14
04/30/2009 15:51 877 2.59 0.13
04/03/2009 10:15 917 2.61 0.13
03/06/2009 13:06 1,090 2.70 0.16
02/10/2009 13:40 1,500 2.67 0.40
01/30/2009 9:55 978 3.60 -0.81
01/05/2009 13:50 994 3.68 -0.88
12/03/2008 14:18 890 2.52 0.21
11/10/2008 11:29 908 2.68 0.06
10/15/2008 15:10 1,220 2.91 0.03
09/17/2008 10:23 916 2.99 -0.25
08/11/2008 14:42 535 2.58 -0.14
07/17/2008 9:00 803 2.75 -0.09
06/18/2008 16:55 851 2.63 0.07
06/03/2008 14:51 4,140 4.15 -0.16
05/21/2008 13:26 462 2.22 0.14
04/28/2008 10:53 736 2.42 0.19
03/26/2008 11:35 781 2.44 0.21
03/06/2008 11:10 1,100 2.53 0.33
02/25/2008 9:48 1,320 2.79 0.19
01/28/2008 11:30 1,090 3.67 -0.81
12/05/2007 14:06 661 2.39 0.16
11/09/2007 14:15 676 2.59 -0.02
10/11/2007 14:37 786 2.81 -0.16
09/13/2007 9:58 819 2.80 -0.13
08/20/2007 14:23 557 2.58 -0.12
07/20/2007 12:20 546 2.48 -0.03
06/21/2007 15:29 650 2.48 0.06
05/30/2007 8:45 3,380 3.88 -0.10
05/23/2007 11:03 813 2.55 0.12
05/02/2007 15:05 1,120 2.77 0.11
03/26/2007 14:21 1,000 2.84 -0.04
02/27/2007 14:00 1,060 2.65 0.19
02/20/2007 13:45 2,010 4.84 -1.54
02/07/2007 13:50 816 3.75 -1.08
01/25/2007 13:55 740 3.36 -0.75
01/10/2007 14:36 798 2.43 0.23
12/13/2006 11:30 735 2.38 0.23
11/07/2006 14:24 716 2.50 0.09
10/10/2006 13:03 798 2.66 0.00
09/13/2006 14:55 767 2.67 -0.04
08/18/2006 9:15 553 2.43 0.03
07/21/2006 9:09 326 2.07 0.13
06/22/2006 11:53 291 2.02 0.12
05/25/2006 15:32 372 2.08 0.18
05/05/2006 11:43 551 2.31 0.14
03/29/2006 10:22 1,340 2.82 0.17
03/06/2006 14:00 804 2.47 0.20
02/01/2006 13:59 785 2.44 0.21
01/03/2006 14:45 965 2.53 0.25
12/19/2005 14:40 635 3.06 -0.53
11/09/2005 15:18 770 2.61 0.03
10/14/2005 11:15 922 2.89 -0.14
09/15/2005 10:41 834 2.84 -0.15
08/17/2005 15:35 864 2.83 -0.12
07/19/2005 11:25 465 2.35 0.01
06/22/2005 10:40 1,160 2.98 -0.08
05/26/2005 15:30 541 2.24 0.20
04/25/2005 15:35 1,440 2.93 0.11
04/23/2005 11:40 2,430 3.18 0.29
03/30/2005 14:55 1,700 2.96 0.21
03/04/2005 10:25 957 2.48 0.29
02/03/2005 14:05 733 2.35 0.26
01/11/2005 14:00 668 3.80 -1.25
12/08/2004 13:50 797 2.40 0.26
11/17/2004 14:30 778 2.48 0.16
10/13/2004 15:05 805 2.63 0.03
09/15/2004 11:30 956 2.88 -0.11
Export



Download Rating Curve
  
1.00     0.00
1.01     0.00
1.02     0.01
1.03     0.02
1.04     0.03
1.05     0.06
1.06     0.10
1.07     0.15
1.08     0.22
1.09     0.30
1.10     0.40
1.11     0.52
1.12     0.65
1.13     0.81
1.14     0.99
1.15     1.19
1.16     1.42
1.17     1.67
1.18     1.95
1.19     2.26
1.20     2.60
1.21     2.96
1.22     3.36
1.23     3.79
1.24     4.25
1.25     4.74
1.26     5.27
1.27     5.84
1.28     6.44
1.29     7.08
1.30     7.76
1.31     8.47
1.32     9.23
1.33     10.03
1.34     10.87
1.35     11.76
1.36     12.69
1.37     13.66
1.38     14.68
1.39     15.75
1.40     16.86
1.41     18.02
1.42     19.23
1.43     20.50
1.44     21.81
1.45     23.17
1.46     24.59
1.47     26.06
1.48     27.58
1.49     29.16
1.50     30.79
1.51     32.49
1.52     34.23
1.53     36.04
1.54     37.90
1.55     39.83
1.56     41.81
1.57     43.86
1.58     45.97
1.59     48.14
1.60     50.37
1.61     52.67
1.62     55.04
1.63     57.46
1.64     59.96
1.65     62.52
1.66     65.15
1.67     67.85
1.68     70.62
1.69     73.46
1.70     76.37
1.71     79.35
1.72     82.40
1.73     85.53
1.74     88.73
1.75     92.00
1.76     95.35
1.77     98.77
1.78     102.27
1.79     105.85
1.80     109.51
1.81     113.24
1.82     117.06
1.83     120.95
1.84     124.92
1.85     128.98
1.86     133.11
1.87     137.33
1.88     141.64
1.89     146.02
1.90     150.49
1.91     155.05
1.92     159.69
1.93     164.42
1.94     169.24
1.95     174.14
1.96     179.13
1.97     184.21
1.98     189.39
1.99     194.65
Download Rating Curve